sensor_id;sensor_type;location;lat;lon;timestamp;temperature;humidity
47791;DHT22;33547;49.044;1.156;2023-05-03T18:37:35;18.50;84.70
47791;DHT22;33547;49.044;1.156;2023-05-03T18:40:01;18.10;85.40
47791;DHT22;33547;49.044;1.156;2023-05-03T18:42:27;18.10;85.40
47791;DHT22;33547;49.044;1.156;2023-05-03T18:44:53;18.10;85.50
47791;DHT22;33547;49.044;1.156;2023-05-03T18:47:19;18.10;85.30
47791;DHT22;33547;49.044;1.156;2023-05-03T18:49:46;18.10;85.60
47791;DHT22;33547;49.044;1.156;2023-05-03T18:52:16;18.00;86.10
47791;DHT22;33547;49.044;1.156;2023-05-03T18:54:41;18.00;85.40
47791;DHT22;33547;49.044;1.156;2023-05-03T18:57:07;18.00;85.80
47791;DHT22;33547;49.044;1.156;2023-05-03T18:59:33;17.90;85.80
47791;DHT22;33547;49.044;1.156;2023-05-03T19:01:58;17.90;85.80
47791;DHT22;33547;49.044;1.156;2023-05-03T19:04:24;17.90;85.60
47791;DHT22;33547;49.044;1.156;2023-05-03T19:06:50;17.80;86.50
47791;DHT22;33547;49.044;1.156;2023-05-03T19:09:16;17.80;86.60
47791;DHT22;33547;49.044;1.156;2023-05-03T19:11:42;17.80;87.40
47791;DHT22;33547;49.044;1.156;2023-05-03T19:14:08;17.70;87.00
47791;DHT22;33547;49.044;1.156;2023-05-03T19:16:34;17.60;87.30
47791;DHT22;33547;49.044;1.156;2023-05-03T19:19:00;17.50;87.60
47791;DHT22;33547;49.044;1.156;2023-05-03T19:21:25;17.50;88.20
47791;DHT22;33547;49.044;1.156;2023-05-03T19:23:52;17.40;88.40
47791;DHT22;33547;49.044;1.156;2023-05-03T19:26:17;17.30;89.00
47791;DHT22;33547;49.044;1.156;2023-05-03T19:28:43;17.30;89.40
47791;DHT22;33547;49.044;1.156;2023-05-03T19:31:09;17.20;89.90
47791;DHT22;33547;49.044;1.156;2023-05-03T19:33:35;17.20;90.00
47791;DHT22;33547;49.044;1.156;2023-05-03T19:36:02;17.10;90.20
47791;DHT22;33547;49.044;1.156;2023-05-03T19:38:34;17.00;90.50
47791;DHT22;33547;49.044;1.156;2023-05-03T19:41:00;16.90;90.50
47791;DHT22;33547;49.044;1.156;2023-05-03T19:43:32;16.90;90.90
47791;DHT22;33547;49.044;1.156;2023-05-03T19:45:58;16.70;91.20
47791;DHT22;33547;49.044;1.156;2023-05-03T19:48:24;16.70;91.60
47791;DHT22;33547;49.044;1.156;2023-05-03T19:50:51;16.60;92.00
47791;DHT22;33547;49.044;1.156;2023-05-03T19:53:18;16.50;92.00
47791;DHT22;33547;49.044;1.156;2023-05-03T19:56:14;16.40;92.70
47791;DHT22;33547;49.044;1.156;2023-05-03T19:58:40;16.30;92.60
47791;DHT22;33547;49.044;1.156;2023-05-03T20:01:06;16.20;92.90
47791;DHT22;33547;49.044;1.156;2023-05-03T20:03:32;16.10;92.90
47791;DHT22;33547;49.044;1.156;2023-05-03T20:05:58;16.10;93.40
47791;DHT22;33547;49.044;1.156;2023-05-03T20:08:24;15.90;93.70
47791;DHT22;33547;49.044;1.156;2023-05-03T20:10:50;15.90;94.10
47791;DHT22;33547;49.044;1.156;2023-05-03T20:13:16;15.80;94.30
47791;DHT22;33547;49.044;1.156;2023-05-03T20:15:41;15.80;94.40
47791;DHT22;33547;49.044;1.156;2023-05-03T20:18:07;15.70;95.10
47791;DHT22;33547;49.044;1.156;2023-05-03T20:20:33;15.60;95.20
47791;DHT22;33547;49.044;1.156;2023-05-03T20:22:59;15.60;95.70
47791;DHT22;33547;49.044;1.156;2023-05-03T20:25:24;15.50;95.50
47791;DHT22;33547;49.044;1.156;2023-05-03T20:27:51;15.50;95.40
47791;DHT22;33547;49.044;1.156;2023-05-03T20:30:17;15.50;95.80
47791;DHT22;33547;49.044;1.156;2023-05-03T20:32:42;15.40;96.10
47791;DHT22;33547;49.044;1.156;2023-05-03T20:35:09;15.30;96.20
47791;DHT22;33547;49.044;1.156;2023-05-03T20:37:35;15.20;96.60
47791;DHT22;33547;49.044;1.156;2023-05-03T20:40:03;15.10;97.20
47791;DHT22;33547;49.044;1.156;2023-05-03T20:42:31;15.10;97.10
47791;DHT22;33547;49.044;1.156;2023-05-03T20:44:57;15.10;97.40
47791;DHT22;33547;49.044;1.156;2023-05-03T20:47:23;15.00;97.90
47791;DHT22;33547;49.044;1.156;2023-05-03T20:49:49;15.00;97.80
47791;DHT22;33547;49.044;1.156;2023-05-03T20:52:15;15.00;98.40
47791;DHT22;33547;49.044;1.156;2023-05-03T20:54:41;14.90;98.30
47791;DHT22;33547;49.044;1.156;2023-05-03T20:57:07;14.80;98.50
47791;DHT22;33547;49.044;1.156;2023-05-03T20:59:33;14.80;98.60
47791;DHT22;33547;49.044;1.156;2023-05-03T21:02:00;14.80;98.60
47791;DHT22;33547;49.044;1.156;2023-05-03T21:04:26;14.70;98.90
47791;DHT22;33547;49.044;1.156;2023-05-03T21:06:52;14.70;99.10
47791;DHT22;33547;49.044;1.156;2023-05-03T21:09:18;14.70;99.40
47791;DHT22;33547;49.044;1.156;2023-05-03T21:11:44;14.60;99.40
47791;DHT22;33547;49.044;1.156;2023-05-03T21:14:10;14.50;99.70
47791;DHT22;33547;49.044;1.156;2023-05-03T21:16:37;14.40;99.90
47791;DHT22;33547;49.044;1.156;2023-05-03T21:19:03;14.40;99.90
47791;DHT22;33547;49.044;1.156;2023-05-03T21:21:29;14.40;99.90
47791;DHT22;33547;49.044;1.156;2023-05-03T21:23:56;14.30;99.90
47791;DHT22;33547;49.044;1.156;2023-05-03T21:26:22;14.30;99.90
47791;DHT22;33547;49.044;1.156;2023-05-03T21:28:48;14.30;99.90
47791;DHT22;33547;49.044;1.156;2023-05-03T21:31:14;14.30;99.90
47791;DHT22;33547;49.044;1.156;2023-05-03T21:33:40;14.30;99.90
47791;DHT22;33547;49.044;1.156;2023-05-03T21:36:07;14.20;99.90
47791;DHT22;33547;49.044;1.156;2023-05-03T21:38:33;14.20;99.90
47791;DHT22;33547;49.044;1.156;2023-05-03T21:41:02;14.10;99.90
47791;DHT22;33547;49.044;1.156;2023-05-03T21:43:29;14.10;99.90
47791;DHT22;33547;49.044;1.156;2023-05-03T21:45:56;14.10;99.90
47791;DHT22;33547;49.044;1.156;2023-05-03T21:48:22;14.10;99.90
47791;DHT22;33547;49.044;1.156;2023-05-03T21:50:49;14.10;99.90
47791;DHT22;33547;49.044;1.156;2023-05-03T21:53:15;14.10;99.90
47791;DHT22;33547;49.044;1.156;2023-05-03T21:55:45;14.00;99.90
47791;DHT22;33547;49.044;1.156;2023-05-03T21:58:14;14.00;99.90
47791;DHT22;33547;49.044;1.156;2023-05-03T22:00:41;14.00;99.90
47791;DHT22;33547;49.044;1.156;2023-05-03T22:03:07;14.00;99.90
47791;DHT22;33547;49.044;1.156;2023-05-03T22:05:33;14.00;99.90
47791;DHT22;33547;49.044;1.156;2023-05-03T22:08:02;13.90;99.90
47791;DHT22;33547;49.044;1.156;2023-05-03T22:10:30;13.90;99.90
47791;DHT22;33547;49.044;1.156;2023-05-03T22:12:56;14.00;99.90
47791;DHT22;33547;49.044;1.156;2023-05-03T22:15:22;14.00;99.90
47791;DHT22;33547;49.044;1.156;2023-05-03T22:17:48;13.90;99.90
47791;DHT22;33547;49.044;1.156;2023-05-03T22:20:14;14.00;99.90
47791;DHT22;33547;49.044;1.156;2023-05-03T22:22:39;13.90;99.90
47791;DHT22;33547;49.044;1.156;2023-05-03T22:25:05;14.00;99.90
47791;DHT22;33547;49.044;1.156;2023-05-03T22:27:31;14.00;99.90
47791;DHT22;33547;49.044;1.156;2023-05-03T22:29:57;13.90;99.90
47791;DHT22;33547;49.044;1.156;2023-05-03T22:32:23;13.90;99.90
47791;DHT22;33547;49.044;1.156;2023-05-03T22:34:48;13.90;99.90
47791;DHT22;33547;49.044;1.156;2023-05-03T22:37:14;13.90;99.90
47791;DHT22;33547;49.044;1.156;2023-05-03T22:39:40;13.80;99.90
47791;DHT22;33547;49.044;1.156;2023-05-03T22:42:06;13.80;99.90
47791;DHT22;33547;49.044;1.156;2023-05-03T22:44:32;13.70;99.90
47791;DHT22;33547;49.044;1.156;2023-05-03T22:46:58;13.70;99.90
47791;DHT22;33547;49.044;1.156;2023-05-03T22:49:24;13.70;99.90
47791;DHT22;33547;49.044;1.156;2023-05-03T22:51:50;13.80;99.90
47791;DHT22;33547;49.044;1.156;2023-05-03T22:54:16;13.80;99.90
47791;DHT22;33547;49.044;1.156;2023-05-03T22:56:42;13.70;99.90
47791;DHT22;33547;49.044;1.156;2023-05-03T22:59:08;13.70;99.90
47791;DHT22;33547;49.044;1.156;2023-05-03T23:01:34;13.60;99.90
47791;DHT22;33547;49.044;1.156;2023-05-03T23:03:59;13.60;99.90
47791;DHT22;33547;49.044;1.156;2023-05-03T23:06:26;13.60;99.90
47791;DHT22;33547;49.044;1.156;2023-05-03T23:08:53;13.60;99.90
47791;DHT22;33547;49.044;1.156;2023-05-03T23:11:18;13.60;99.90
47791;DHT22;33547;49.044;1.156;2023-05-03T23:13:45;13.50;99.90
47791;DHT22;33547;49.044;1.156;2023-05-03T23:16:11;13.50;99.90
47791;DHT22;33547;49.044;1.156;2023-05-03T23:18:37;13.60;99.90
47791;DHT22;33547;49.044;1.156;2023-05-03T23:21:03;13.50;99.90
47791;DHT22;33547;49.044;1.156;2023-05-03T23:23:28;13.50;99.90
47791;DHT22;33547;49.044;1.156;2023-05-03T23:25:54;13.50;99.90
47791;DHT22;33547;49.044;1.156;2023-05-03T23:28:21;13.50;99.90
47791;DHT22;33547;49.044;1.156;2023-05-03T23:30:46;13.50;99.90
47791;DHT22;33547;49.044;1.156;2023-05-03T23:33:12;13.40;99.90
47791;DHT22;33547;49.044;1.156;2023-05-03T23:35:39;13.40;99.90
47791;DHT22;33547;49.044;1.156;2023-05-03T23:38:05;13.50;99.90
47791;DHT22;33547;49.044;1.156;2023-05-03T23:40:31;13.40;99.90
47791;DHT22;33547;49.044;1.156;2023-05-03T23:42:56;13.40;99.90
47791;DHT22;33547;49.044;1.156;2023-05-03T23:45:22;13.40;99.90
47791;DHT22;33547;49.044;1.156;2023-05-03T23:47:48;13.40;99.90
47791;DHT22;33547;49.044;1.156;2023-05-03T23:50:14;13.40;99.90
47791;DHT22;33547;49.044;1.156;2023-05-03T23:52:40;13.40;99.90
47791;DHT22;33547;49.044;1.156;2023-05-03T23:55:06;13.40;99.90
47791;DHT22;33547;49.044;1.156;2023-05-03T23:57:33;13.40;99.90
47791;DHT22;33547;49.044;1.156;2023-05-03T23:59:59;13.40;99.90
